createdAt,value
2023-01-19T00:00:28.956Z,100099.44
2023-01-19T00:02:55.516Z,100100.31
2023-01-19T00:05:22.125Z,100097.66
2023-01-19T00:07:48.800Z,100099.53
2023-01-19T00:10:15.371Z,100091.47
2023-01-19T00:12:41.895Z,100089.72
2023-01-19T00:15:08.938Z,100093.25
2023-01-19T00:17:35.554Z,100089.59
2023-01-19T00:20:01.952Z,100091.47
2023-01-19T00:22:28.348Z,100096.78
2023-01-19T00:24:54.783Z,100099.34
2023-01-19T00:27:21.280Z,100113.53
2023-01-19T00:29:47.815Z,100109.63
2023-01-19T00:32:14.384Z,100107.72
2023-01-19T00:34:42.627Z,100093.63
2023-01-19T00:37:10.082Z,100116.13
2023-01-19T00:39:36.682Z,100103.78
2023-01-19T00:42:21.811Z,100106.59
2023-01-19T00:44:48.312Z,100116.59
2023-01-19T00:47:14.820Z,100105.09
2023-01-19T00:49:41.310Z,100098.91
2023-01-19T00:52:07.772Z,100098.16
2023-01-19T00:54:34.231Z,100094.69
2023-01-19T00:57:00.623Z,100099.84
2023-01-19T00:59:27.723Z,100096.88
2023-01-19T01:01:54.838Z,100092.06
2023-01-19T01:04:21.565Z,100089.97
2023-01-19T01:06:48.100Z,100084.41
2023-01-19T01:09:14.667Z,100089.25
2023-01-19T01:11:42.816Z,100082.84
2023-01-19T01:14:13.173Z,100072.84
2023-01-19T01:16:39.773Z,100080.75
2023-01-19T01:19:06.284Z,100088.78
2023-01-19T01:21:34.511Z,100084.56
2023-01-19T01:24:01.524Z,100087.28
2023-01-19T01:26:27.918Z,100085.91
2023-01-19T01:28:54.337Z,100085.50
2023-01-19T01:31:20.749Z,100095.41
2023-01-19T01:33:47.214Z,100085.72
2023-01-19T01:36:14.068Z,100098.16
2023-01-19T01:38:41.710Z,100091.03
2023-01-19T01:41:09.016Z,100094.66
2023-01-19T01:43:44.970Z,100093.69
2023-01-19T01:46:12.059Z,100096.28
2023-01-19T01:48:39.339Z,100098.00
2023-01-19T01:51:25.748Z,100103.19
2023-01-19T01:54:00.507Z,100102.94
2023-01-19T01:56:34.120Z,100100.19
2023-01-19T01:59:05.544Z,100098.25
2023-01-19T02:01:51.021Z,100093.66
2023-01-19T02:04:18.196Z,100104.91
2023-01-19T02:07:03.475Z,100101.16
2023-01-19T02:09:53.510Z,100100.84
2023-01-19T02:12:38.722Z,100106.78
2023-01-19T02:15:05.744Z,100108.34
2023-01-19T02:17:32.626Z,100113.44
2023-01-19T02:19:59.448Z,100107.56
2023-01-19T02:22:36.003Z,100107.34
2023-01-19T02:25:04.735Z,100107.09
2023-01-19T02:27:32.430Z,100105.06
2023-01-19T02:30:00.364Z,100104.09
2023-01-19T02:32:27.314Z,100118.19
2023-01-19T02:34:54.771Z,100116.31
2023-01-19T02:37:22.064Z,100120.59
2023-01-19T02:39:57.677Z,100129.91
2023-01-19T02:42:43.609Z,100126.41
2023-01-19T02:45:12.711Z,100139.63
2023-01-19T02:47:44.369Z,100138.69
2023-01-19T02:50:45.939Z,100141.25
2023-01-19T02:53:27.801Z,100138.69
2023-01-19T02:56:04.414Z,100152.00
2023-01-19T02:58:38.083Z,100156.38
2023-01-19T03:01:21.470Z,100158.97
2023-01-19T03:03:56.367Z,100150.97
2023-01-19T03:06:49.394Z,100159.88
2023-01-19T03:09:32.437Z,100164.28
2023-01-19T03:12:15.557Z,100171.31
2023-01-19T03:14:46.904Z,100171.31
2023-01-19T03:17:16.997Z,100163.34
2023-01-19T03:19:48.530Z,100155.34
2023-01-19T03:22:21.309Z,100164.28
2023-01-19T03:24:50.384Z,100163.25
2023-01-19T03:27:26.226Z,100167.78
2023-01-19T03:29:57.735Z,100161.72
2023-01-19T03:32:36.132Z,100167.97
2023-01-19T03:35:07.958Z,100167.03
2023-01-19T03:37:42.715Z,100178.34
2023-01-19T03:40:10.671Z,100185.44
2023-01-19T03:42:38.981Z,100169.44
2023-01-19T03:45:07.342Z,100178.34
2023-01-19T03:47:35.288Z,100175.69
2023-01-19T03:50:07.133Z,100181.97
2023-01-19T03:52:33.636Z,100200.78
2023-01-19T03:55:05.433Z,100189.41
2023-01-19T03:57:32.418Z,100195.69
2023-01-19T03:59:58.906Z,100195.06
2023-01-19T04:02:25.440Z,100220.91
2023-01-19T04:04:51.895Z,100206.81
2023-01-19T04:07:18.323Z,100213.13
2023-01-19T04:09:45.094Z,100210.69
2023-01-19T04:12:11.600Z,100211.03
2023-01-19T04:14:38.029Z,100208.59
2023-01-19T04:17:05.097Z,100206.16
2023-01-19T04:19:31.612Z,100208.19
2023-01-19T04:21:58.220Z,100205.75
2023-01-19T04:24:24.742Z,100195.34
2023-01-19T04:26:53.432Z,100199.97
2023-01-19T04:29:19.967Z,100206.44
2023-01-19T04:31:46.421Z,100205.81
2023-01-19T04:34:12.837Z,100202.50
2023-01-19T04:36:39.256Z,100219.41
2023-01-19T04:39:06.051Z,100221.28
2023-01-19T04:41:32.591Z,100218.75
2023-01-19T04:43:59.059Z,100217.09
2023-01-19T04:46:25.593Z,100230.47
2023-01-19T04:48:52.470Z,100229.59
2023-01-19T04:51:18.882Z,100227.97
2023-01-19T04:53:45.327Z,100235.22
2023-01-19T04:56:12.366Z,100226.28
2023-01-19T04:58:38.949Z,100232.56
2023-01-19T05:01:09.640Z,100240.53
2023-01-19T05:03:36.076Z,100247.63
2023-01-19T05:06:02.677Z,100248.59
2023-01-19T05:08:29.442Z,100258.19
2023-01-19T05:10:57.511Z,100261.72
2023-01-19T05:13:24.104Z,100261.72
2023-01-19T05:15:50.686Z,100270.50
2023-01-19T05:18:17.988Z,100267.75
2023-01-19T05:20:44.633Z,100265.09
2023-01-19T05:23:11.244Z,100265.03
2023-01-19T05:25:37.759Z,100271.06
2023-01-19T05:28:04.551Z,100266.75
2023-01-19T05:30:31.318Z,100269.41
2023-01-19T05:32:57.812Z,100270.34
2023-01-19T05:35:35.253Z,100266.75
2023-01-19T05:38:02.341Z,100282.66
2023-01-19T05:40:28.789Z,100274.59
2023-01-19T05:42:55.588Z,100278.81
2023-01-19T05:45:22.164Z,100284.13
2023-01-19T05:47:48.643Z,100297.34
2023-01-19T05:50:15.382Z,100304.28
2023-01-19T05:52:41.821Z,100288.53
2023-01-19T05:55:08.952Z,100288.13
2023-01-19T05:57:35.341Z,100295.81
2023-01-19T06:00:02.290Z,100294.81
2023-01-19T06:02:36.267Z,100300.84
2023-01-19T06:05:02.771Z,100294.66
2023-01-19T06:07:29.333Z,100297.41
2023-01-19T06:09:55.789Z,100302.09
2023-01-19T06:12:22.232Z,100306.91
2023-01-19T06:14:49.377Z,100305.47
2023-01-19T06:17:16.038Z,100306.69
2023-01-19T06:19:42.503Z,100318.50
2023-01-19T06:22:08.976Z,100346.09
2023-01-19T06:24:35.384Z,100339.78
2023-01-19T06:27:02.379Z,100335.75
2023-01-19T06:29:29.543Z,100338.03
2023-01-19T06:31:56.454Z,100354.78
2023-01-19T06:34:26.923Z,100359.25
2023-01-19T06:36:53.370Z,100378.66
2023-01-19T06:39:19.785Z,100372.06
2023-01-19T06:41:46.425Z,100374.47
2023-01-19T06:44:12.876Z,100381.56
2023-01-19T06:46:39.300Z,100370.81
2023-01-19T06:49:05.787Z,100374.25
2023-01-19T06:51:32.227Z,100372.63
2023-01-19T06:53:59.042Z,100378.81
2023-01-19T06:56:25.816Z,100383.34
2023-01-19T06:58:53.292Z,100386.91
2023-01-19T07:01:19.839Z,100384.47
2023-01-19T07:03:47.070Z,100396.16
2023-01-19T07:06:13.533Z,100391.88
2023-01-19T07:08:40.061Z,100397.44
2023-01-19T07:11:23.672Z,100404.69
2023-01-19T07:13:55.385Z,100412.94
2023-01-19T07:16:21.967Z,100414.09
2023-01-19T07:18:48.901Z,100425.06
2023-01-19T07:21:15.662Z,100423.69
2023-01-19T07:23:43.290Z,100431.13
2023-01-19T07:26:10.423Z,100426.25
2023-01-19T07:28:37.232Z,100431.00
2023-01-19T07:31:04.210Z,100439.19
2023-01-19T07:33:30.718Z,100439.25
2023-01-19T07:35:57.299Z,100446.28
2023-01-19T07:38:23.931Z,100446.34
2023-01-19T07:40:50.375Z,100451.50
2023-01-19T07:43:16.962Z,100460.06
2023-01-19T07:45:44.825Z,100456.16
2023-01-19T07:48:11.628Z,100466.50
2023-01-19T07:50:38.551Z,100467.09
2023-01-19T07:53:09.112Z,100473.06
2023-01-19T07:55:35.909Z,100475.59
2023-01-19T07:58:06.477Z,100480.75
2023-01-19T08:00:35.193Z,100485.31
2023-01-19T08:03:03.542Z,100487.38
2023-01-19T08:05:31.151Z,100485.97
2023-01-19T08:07:58.843Z,100490.63
2023-01-19T08:10:27.922Z,100505.84
2023-01-19T08:12:55.825Z,100509.56
2023-01-19T08:15:24.073Z,100509.97
2023-01-19T08:18:02.302Z,100514.53
2023-01-19T08:20:29.604Z,100516.25
2023-01-19T08:23:03.026Z,100524.03
2023-01-19T08:25:42.159Z,100525.69
2023-01-19T08:28:09.421Z,100528.22
2023-01-19T08:30:36.303Z,100529.91
2023-01-19T08:33:07.928Z,100536.06
2023-01-19T08:35:39.463Z,100540.47
2023-01-19T08:38:07.310Z,100535.97
2023-01-19T08:40:36.861Z,100543.00
2023-01-19T08:43:08.504Z,100536.81
2023-01-19T08:45:37.179Z,100547.13
2023-01-19T08:48:06.295Z,100551.06
2023-01-19T08:50:33.983Z,100548.91
2023-01-19T08:53:03.514Z,100553.88
2023-01-19T08:55:30.502Z,100562.81
2023-01-19T08:57:59.912Z,100557.16
2023-01-19T09:00:27.103Z,100566.34
2023-01-19T09:02:54.786Z,100560.66
2023-01-19T09:05:21.376Z,100557.06
2023-01-19T09:07:51.681Z,100561.72
2023-01-19T09:10:18.880Z,100570.00
2023-01-19T09:12:46.342Z,100579.31
2023-01-19T09:15:15.308Z,100572.69
2023-01-19T09:17:44.784Z,100568.97
2023-01-19T09:20:11.526Z,100574.41
2023-01-19T09:22:39.630Z,100572.69
2023-01-19T09:25:07.591Z,100579.63
2023-01-19T09:27:34.958Z,100571.19
2023-01-19T09:30:01.779Z,100583.06
2023-01-19T09:32:28.235Z,100576.34
2023-01-19T09:34:56.381Z,100584.06
2023-01-19T09:37:23.576Z,100575.84
2023-01-19T09:39:50.279Z,100580.28
2023-01-19T09:42:44.497Z,100574.09
2023-01-19T09:45:18.994Z,100575.47
2023-01-19T09:47:48.538Z,100579.72
2023-01-19T09:50:24.601Z,100579.03
2023-01-19T09:52:57.154Z,100567.44
2023-01-19T09:55:26.885Z,100578.69
2023-01-19T09:57:54.224Z,100571.25
2023-01-19T10:00:23.289Z,100566.47
2023-01-19T10:03:12.570Z,100569.19
2023-01-19T10:05:45.868Z,100569.72
2023-01-19T10:08:23.581Z,100570.59
2023-01-19T10:10:55.039Z,100567.94
2023-01-19T10:13:31.801Z,100570.56
2023-01-19T10:16:31.941Z,100583.03
2023-01-19T10:19:18.377Z,100580.09
2023-01-19T10:21:46.385Z,100600.03
2023-01-19T10:24:25.195Z,100597.63
2023-01-19T10:26:55.020Z,100598.56
2023-01-19T10:29:36.324Z,100599.72
2023-01-19T10:32:19.997Z,100602.34
2023-01-19T10:34:47.780Z,100580.94
2023-01-19T10:37:47.794Z,100585.66
2023-01-19T10:40:19.935Z,100587.25
2023-01-19T10:42:46.503Z,100584.53
2023-01-19T10:45:23.139Z,100584.06
2023-01-19T10:47:50.241Z,100577.19
2023-01-19T10:50:29.793Z,100585.44
2023-01-19T10:52:59.456Z,100591.09
2023-01-19T10:55:31.651Z,100581.50
2023-01-19T10:57:59.218Z,100589.03
2023-01-19T11:00:40.166Z,100580.03
2023-01-19T11:03:30.935Z,100587.75
2023-01-19T11:06:26.527Z,100608.50
2023-01-19T11:09:08.690Z,100597.84
2023-01-19T11:11:42.929Z,100596.00
2023-01-19T11:14:15.092Z,100598.91
2023-01-19T11:16:47.996Z,100592.69
2023-01-19T11:19:24.440Z,100603.03
2023-01-19T11:21:51.196Z,100598.41
2023-01-19T11:24:17.802Z,100602.31
2023-01-19T11:26:57.391Z,100611.13
2023-01-19T11:29:26.334Z,100606.63
2023-01-19T11:31:54.757Z,100616.28
2023-01-19T11:34:34.389Z,100630.19
2023-01-19T11:37:06.744Z,100637.47
2023-01-19T11:39:46.888Z,100634.97
2023-01-19T11:42:14.650Z,100637.00
2023-01-19T11:44:52.665Z,100627.75
2023-01-19T11:47:27.086Z,100634.16
2023-01-19T11:50:05.965Z,100634.31
2023-01-19T11:52:43.080Z,100631.22
2023-01-19T11:55:23.858Z,100625.19
2023-01-19T11:57:54.294Z,100627.59
2023-01-19T12:00:29.062Z,100628.78
2023-01-19T12:03:01.883Z,100633.53
2023-01-19T12:05:33.407Z,100631.72
2023-01-19T12:08:06.731Z,100634.91
2023-01-19T12:10:41.633Z,100627.59
2023-01-19T12:13:21.772Z,100628.97
2023-01-19T12:16:01.308Z,100630.25
2023-01-19T12:18:32.413Z,100639.19
2023-01-19T12:20:59.009Z,100639.91
2023-01-19T12:23:44.733Z,100638.59
2023-01-19T12:26:27.890Z,100650.44
2023-01-19T12:28:58.987Z,100642.03
2023-01-19T12:31:25.699Z,100641.69
2023-01-19T12:33:52.639Z,100639.84
2023-01-19T12:36:35.421Z,100640.59
2023-01-19T12:39:19.650Z,100636.25
2023-01-19T12:41:47.215Z,100636.72
2023-01-19T12:44:16.168Z,100643.59
2023-01-19T12:47:07.501Z,100638.91
2023-01-19T12:49:45.252Z,100641.28
2023-01-19T12:52:19.860Z,100638.91
2023-01-19T12:55:11.212Z,100646.53
2023-01-19T12:57:58.270Z,100647.59
2023-01-19T13:00:24.712Z,100646.59
2023-01-19T13:02:54.450Z,100650.72
2023-01-19T13:05:38.980Z,100640.34
2023-01-19T13:08:05.518Z,100643.09
2023-01-19T13:11:02.893Z,100640.09
2023-01-19T13:13:36.320Z,100639.56
2023-01-19T13:16:18.133Z,100643.22
2023-01-19T13:18:48.600Z,100636.19
2023-01-19T13:21:28.750Z,100637.34
2023-01-19T13:24:00.387Z,100638.13
2023-01-19T13:26:39.058Z,100646.69
2023-01-19T13:29:10.734Z,100649.38
2023-01-19T13:31:39.736Z,100648.28
2023-01-19T13:34:13.781Z,100655.13
2023-01-19T13:36:44.858Z,100659.16
2023-01-19T13:39:23.005Z,100656.94
2023-01-19T13:41:52.563Z,100657.97
2023-01-19T13:44:28.076Z,100662.28
2023-01-19T13:46:59.787Z,100667.00
2023-01-19T13:49:30.569Z,100657.59
2023-01-19T13:52:22.402Z,100659.66
2023-01-19T13:54:53.365Z,100671.53
2023-01-19T13:57:24.313Z,100670.66
2023-01-19T14:00:11.887Z,100671.06
2023-01-19T14:02:40.111Z,100677.69
2023-01-19T14:05:22.281Z,100678.28
2023-01-19T14:07:59.041Z,100679.84
2023-01-19T14:10:25.685Z,100682.28
2023-01-19T14:13:22.598Z,100692.59
2023-01-19T14:15:51.815Z,100694.13
2023-01-19T14:18:18.477Z,100695.59
2023-01-19T14:21:00.946Z,100699.81
2023-01-19T14:24:02.649Z,100706.31
2023-01-19T14:26:38.399Z,100704.75
2023-01-19T14:29:27.753Z,100704.03
2023-01-19T14:32:00.076Z,100699.34
2023-01-19T14:34:35.684Z,100707.66
2023-01-19T14:37:05.063Z,100701.69
2023-01-19T14:39:35.596Z,100700.94
2023-01-19T14:42:05.281Z,100704.50
2023-01-19T14:44:40.759Z,100706.25
2023-01-19T14:47:24.901Z,100705.75
2023-01-19T14:49:51.406Z,100696.63
2023-01-19T14:52:26.816Z,100702.59
2023-01-19T14:54:55.430Z,100705.19
2023-01-19T14:57:22.234Z,100703.00
2023-01-19T14:59:50.197Z,100711.78
2023-01-19T15:02:20.305Z,100709.50
2023-01-19T15:04:48.036Z,100711.81
2023-01-19T15:07:19.499Z,100703.47
2023-01-19T15:09:49.147Z,100710.91
2023-01-19T15:12:17.600Z,100709.94
2023-01-19T15:14:45.326Z,100715.13
2023-01-19T15:17:25.386Z,100723.94
2023-01-19T15:19:54.008Z,100726.03
2023-01-19T15:22:22.337Z,100723.81
2023-01-19T15:24:49.695Z,100731.25
2023-01-19T15:27:16.430Z,100728.25
2023-01-19T15:29:42.897Z,100734.88
2023-01-19T15:32:14.074Z,100736.28
2023-01-19T15:34:41.710Z,100742.81
2023-01-19T15:37:08.205Z,100746.75
2023-01-19T15:39:35.282Z,100748.75
2023-01-19T15:42:02.074Z,100750.09
2023-01-19T15:44:29.488Z,100755.91
2023-01-19T15:46:57.388Z,100754.56
2023-01-19T15:49:24.095Z,100756.78
2023-01-19T15:51:50.567Z,100754.41
2023-01-19T15:54:18.445Z,100760.84
2023-01-19T15:56:44.930Z,100758.56
2023-01-19T15:59:11.473Z,100764.13
2023-01-19T16:01:40.647Z,100768.97
2023-01-19T16:04:09.470Z,100772.13
2023-01-19T16:06:36.026Z,100770.59
2023-01-19T16:09:03.846Z,100765.69
2023-01-19T16:11:33.421Z,100767.84
2023-01-19T16:14:00.492Z,100778.88
2023-01-19T16:16:28.150Z,100774.53
2023-01-19T16:18:55.425Z,100778.25
2023-01-19T16:21:22.525Z,100783.78
2023-01-19T16:23:49.107Z,100784.97
2023-01-19T16:26:34.742Z,100782.56
2023-01-19T16:29:10.538Z,100794.34
2023-01-19T16:31:38.480Z,100797.19
2023-01-19T16:34:05.132Z,100798.19
2023-01-19T16:36:33.228Z,100799.25
2023-01-19T16:39:01.639Z,100797.63
2023-01-19T16:41:28.493Z,100809.28
2023-01-19T16:43:56.341Z,100808.72
2023-01-19T16:46:29.713Z,100808.03
2023-01-19T16:49:02.703Z,100818.06
2023-01-19T16:51:29.655Z,100820.88
2023-01-19T16:53:56.569Z,100813.06
2023-01-19T16:56:23.064Z,100813.16
2023-01-19T16:58:56.272Z,100831.00
2023-01-19T17:01:25.034Z,100832.88
2023-01-19T17:03:51.647Z,100833.06
2023-01-19T17:06:22.637Z,100830.59
2023-01-19T17:08:50.145Z,100832.47
2023-01-19T17:11:22.211Z,100840.59
2023-01-19T17:13:56.315Z,100844.19
2023-01-19T17:16:24.351Z,100847.06
2023-01-19T17:18:52.201Z,100848.00
2023-01-19T17:21:20.003Z,100855.22
2023-01-19T17:23:48.448Z,100851.81
2023-01-19T17:26:15.832Z,100848.28
2023-01-19T17:28:42.808Z,100850.09
2023-01-19T17:31:15.429Z,100860.81
2023-01-19T17:33:46.973Z,100859.22
2023-01-19T17:36:15.984Z,100865.38
2023-01-19T17:38:42.808Z,100869.88
2023-01-19T17:41:17.769Z,100862.88
2023-01-19T17:43:46.017Z,100868.25
2023-01-19T17:46:13.052Z,100868.41
2023-01-19T17:48:40.093Z,100864.94
2023-01-19T17:51:09.497Z,100867.63
2023-01-19T17:53:36.463Z,100864.16
2023-01-19T17:56:08.101Z,100865.97
2023-01-19T17:58:34.809Z,100874.00
2023-01-19T18:01:15.285Z,100872.34
2023-01-19T18:03:42.423Z,100873.28
2023-01-19T18:06:10.189Z,100866.22
2023-01-19T18:08:41.437Z,100882.13
2023-01-19T18:11:08.936Z,100883.09
2023-01-19T18:13:36.427Z,100877.84
2023-01-19T18:16:08.628Z,100876.00
2023-01-19T18:18:36.267Z,100875.94
2023-01-19T18:21:06.398Z,100885.56
2023-01-19T18:23:32.977Z,100880.16
2023-01-19T18:26:01.227Z,100885.41
2023-01-19T18:28:28.070Z,100887.06
2023-01-19T18:30:54.737Z,100893.16
2023-01-19T18:33:21.691Z,100901.88
2023-01-19T18:35:48.680Z,100898.03
2023-01-19T18:38:15.556Z,100905.75
2023-01-19T18:40:42.247Z,100905.63
2023-01-19T18:43:10.513Z,100896.78
2023-01-19T18:45:39.871Z,100910.94
2023-01-19T18:48:06.445Z,100907.41
2023-01-19T18:50:33.413Z,100904.75
2023-01-19T18:52:59.941Z,100902.97
2023-01-19T18:55:26.381Z,100899.59
2023-01-19T18:57:53.040Z,100894.28
2023-01-19T19:00:19.921Z,100895.13
2023-01-19T19:02:46.377Z,100904.91
2023-01-19T19:05:12.822Z,100900.38
2023-01-19T19:07:39.295Z,100907.41
2023-01-19T19:10:06.285Z,100902.91
2023-01-19T19:12:32.809Z,100910.56
2023-01-19T19:14:59.227Z,100910.28
2023-01-19T19:17:25.783Z,100914.56
2023-01-19T19:19:52.336Z,100932.19
2023-01-19T19:22:18.823Z,100934.75
2023-01-19T19:24:45.647Z,100939.88
2023-01-19T19:27:14.202Z,100938.84
2023-01-19T19:29:41.245Z,100944.88
2023-01-19T19:32:08.249Z,100938.63
2023-01-19T19:34:34.920Z,100942.00
2023-01-19T19:37:02.377Z,100955.19
2023-01-19T19:39:29.136Z,100960.50
2023-01-19T19:41:55.659Z,100963.88
2023-01-19T19:44:22.402Z,100962.91
2023-01-19T19:46:48.924Z,100970.69
2023-01-19T19:49:21.202Z,100963.50
2023-01-19T19:51:48.851Z,100967.88
2023-01-19T19:54:15.378Z,100974.78
2023-01-19T19:56:41.819Z,100976.50
2023-01-19T19:59:08.226Z,100986.09
2023-01-19T20:01:34.879Z,100992.13
2023-01-19T20:04:07.678Z,100980.66
2023-01-19T20:06:38.727Z,100975.44
2023-01-19T20:09:07.128Z,100981.66
2023-01-19T20:11:33.612Z,100983.47
2023-01-19T20:14:00.533Z,100983.41
2023-01-19T20:16:26.990Z,100992.22
2023-01-19T20:18:54.286Z,100987.91
2023-01-19T20:21:26.556Z,100995.09
2023-01-19T20:23:54.965Z,100995.03
2023-01-19T20:26:25.135Z,101001.22
2023-01-19T20:28:52.487Z,101010.09
2023-01-19T20:31:22.633Z,101017.16
2023-01-19T20:33:51.183Z,101008.25
2023-01-19T20:36:18.107Z,101023.31
2023-01-19T20:38:44.941Z,101028.69
2023-01-19T20:41:12.852Z,101029.63
2023-01-19T20:43:40.111Z,101023.47
2023-01-19T20:46:07.119Z,101033.34
2023-01-19T20:48:33.961Z,101034.25
2023-01-19T20:51:02.212Z,101044.06
2023-01-19T20:53:29.267Z,101046.59
2023-01-19T20:55:55.812Z,101041.25
2023-01-19T20:58:23.776Z,101051.03
2023-01-19T21:00:50.810Z,101051.88
2023-01-19T21:03:18.022Z,101051.81
2023-01-19T21:05:48.322Z,101046.56
2023-01-19T21:08:15.392Z,101043.94
2023-01-19T21:10:42.864Z,101038.75
2023-01-19T21:13:09.337Z,101040.56
2023-01-19T21:15:35.822Z,101037.06
2023-01-19T21:18:02.473Z,101038.03
2023-01-19T21:20:29.882Z,101034.50
2023-01-19T21:22:57.241Z,101042.47
2023-01-19T21:25:23.721Z,101040.78
2023-01-19T21:27:50.800Z,101047.00
2023-01-19T21:30:18.549Z,101051.41
2023-01-19T21:32:45.499Z,101056.88
2023-01-19T21:35:12.490Z,101050.84
2023-01-19T21:37:39.085Z,101058.91
2023-01-19T21:40:20.573Z,101054.69
2023-01-19T21:42:46.980Z,101059.25
2023-01-19T21:45:13.691Z,101061.19
2023-01-19T21:47:40.337Z,101060.41
2023-01-19T21:50:07.037Z,101064.94
2023-01-19T21:52:33.951Z,101066.78
2023-01-19T21:55:00.422Z,101068.72
2023-01-19T21:57:27.014Z,101065.22
2023-01-19T21:59:53.476Z,101071.53
2023-01-19T22:02:37.184Z,101080.47
2023-01-19T22:05:06.435Z,101086.75
2023-01-19T22:07:33.126Z,101090.28
2023-01-19T22:09:59.822Z,101088.66
2023-01-19T22:12:26.387Z,101086.06
2023-01-19T22:14:54.339Z,101096.72
2023-01-19T22:17:20.931Z,101104.63
2023-01-19T22:19:48.109Z,101107.97
2023-01-19T22:22:15.024Z,101107.88
2023-01-19T22:24:46.365Z,101112.19
2023-01-19T22:27:13.272Z,101122.53
2023-01-19T22:29:39.689Z,101116.19
2023-01-19T22:32:06.456Z,101117.13
2023-01-19T22:34:32.935Z,101112.78
2023-01-19T22:36:59.321Z,101123.25
2023-01-19T22:39:25.762Z,101132.16
2023-01-19T22:41:52.182Z,101118.84
2023-01-19T22:44:20.992Z,101126.69
2023-01-19T22:46:49.279Z,101127.63
2023-01-19T22:49:17.866Z,101124.13
2023-01-19T22:51:45.202Z,101117.94
2023-01-19T22:54:12.196Z,101118.84
2023-01-19T22:56:39.997Z,101125.00
2023-01-19T22:59:07.591Z,101127.81
2023-01-19T23:01:39.870Z,101133.28
2023-01-19T23:04:07.760Z,101130.63
2023-01-19T23:06:37.031Z,101131.66
2023-01-19T23:09:07.107Z,101133.44
2023-01-19T23:11:36.376Z,101133.34
2023-01-19T23:14:04.217Z,101128.06
2023-01-19T23:16:31.061Z,101130.72
2023-01-19T23:18:58.469Z,101130.81
2023-01-19T23:21:27.429Z,101129.19
2023-01-19T23:23:59.176Z,101122.22
2023-01-19T23:26:27.217Z,101131.94
2023-01-19T23:28:56.535Z,101130.31
2023-01-19T23:31:24.787Z,101127.56
2023-01-19T23:33:56.004Z,101130.16
2023-01-19T23:36:24.189Z,101126.59
2023-01-19T23:38:54.199Z,101125.81
2023-01-19T23:41:21.937Z,101130.31
2023-01-19T23:43:49.008Z,101129.63
2023-01-19T23:46:16.356Z,101131.56
2023-01-19T23:48:42.872Z,101143.13
2023-01-19T23:51:24.076Z,101138.91
2023-01-19T23:53:51.009Z,101140.72
2023-01-19T23:56:32.902Z,101131.06
2023-01-19T23:59:04.794Z,101140.88
